createdAt,value
2019-03-17T00:02:10.041Z,99.90
2019-03-17T00:04:38.219Z,99.90
2019-03-17T00:07:06.396Z,99.90
2019-03-17T00:09:35.016Z,99.90
2019-03-17T00:12:03.332Z,99.90
2019-03-17T00:14:32.079Z,99.90
2019-03-17T00:17:00.660Z,99.90
2019-03-17T00:19:29.459Z,99.90
2019-03-17T00:21:57.579Z,99.90
2019-03-17T00:24:25.927Z,99.90
2019-03-17T00:26:54.067Z,99.90
2019-03-17T00:29:22.664Z,99.90
2019-03-17T00:31:50.779Z,99.90
2019-03-17T00:34:18.960Z,99.90
2019-03-17T00:36:47.095Z,99.90
2019-03-17T00:39:15.738Z,99.90
2019-03-17T00:41:43.970Z,99.90
2019-03-17T00:44:12.157Z,99.90
2019-03-17T00:46:40.483Z,99.90
2019-03-17T00:49:09.107Z,99.90
2019-03-17T00:51:37.229Z,99.90
2019-03-17T00:54:05.389Z,99.90
2019-03-17T00:56:33.954Z,99.90
2019-03-17T00:59:02.139Z,99.90
2019-03-17T01:01:30.311Z,99.90
2019-03-17T01:04:06.295Z,99.90
2019-03-17T01:06:34.427Z,99.90
2019-03-17T01:09:03.374Z,99.90
2019-03-17T01:11:31.589Z,99.90
2019-03-17T01:13:59.798Z,99.90
2019-03-17T01:16:28.462Z,99.90
2019-03-17T01:18:56.575Z,99.90
2019-03-17T01:21:24.747Z,99.90
2019-03-17T01:23:53.045Z,99.90
2019-03-17T01:26:21.282Z,99.90
2019-03-17T01:28:49.420Z,99.90
2019-03-17T01:31:17.947Z,99.90
2019-03-17T01:33:46.178Z,99.90
2019-03-17T01:36:14.468Z,99.90
2019-03-17T01:38:43.049Z,99.90
2019-03-17T01:41:15.180Z,99.90
2019-03-17T01:43:43.308Z,99.90
2019-03-17T01:46:11.491Z,99.90
2019-03-17T01:48:39.620Z,99.90
2019-03-17T01:51:08.568Z,99.90
2019-03-17T01:53:37.272Z,99.90
2019-03-17T01:56:05.576Z,99.90
2019-03-17T01:58:33.755Z,99.90
2019-03-17T02:01:01.944Z,99.90
2019-03-17T02:03:30.267Z,99.90
2019-03-17T02:05:58.440Z,99.90
2019-03-17T02:08:26.555Z,99.90
2019-03-17T02:10:54.940Z,99.90
2019-03-17T02:13:23.179Z,99.90
2019-03-17T02:15:51.360Z,99.90
2019-03-17T02:18:19.891Z,99.90
2019-03-17T02:20:48.598Z,99.90
2019-03-17T02:23:16.721Z,99.90
2019-03-17T02:25:45.067Z,99.90
2019-03-17T02:28:13.643Z,99.90
2019-03-17T02:30:41.820Z,99.90
2019-03-17T02:33:12.315Z,99.90
2019-03-17T02:35:40.513Z,99.90
2019-03-17T02:38:09.155Z,99.90
2019-03-17T02:40:37.695Z,99.90
2019-03-17T02:43:06.323Z,99.90
2019-03-17T02:45:34.925Z,99.90
2019-03-17T02:48:03.054Z,99.90
2019-03-17T02:50:31.696Z,99.90
2019-03-17T02:52:59.842Z,99.90
2019-03-17T02:55:28.566Z,99.90
2019-03-17T02:57:56.781Z,99.90
2019-03-17T03:00:24.968Z,99.90
2019-03-17T03:02:53.184Z,99.90
2019-03-17T03:05:21.363Z,99.90
2019-03-17T03:07:49.658Z,99.90
2019-03-17T03:10:17.839Z,99.90
2019-03-17T03:12:45.951Z,99.90
2019-03-17T03:15:14.328Z,99.90
2019-03-17T03:17:42.552Z,99.90
2019-03-17T03:20:11.368Z,99.90
2019-03-17T03:22:39.632Z,99.90
2019-03-17T03:25:07.963Z,99.90
2019-03-17T03:27:36.195Z,99.90
2019-03-17T03:30:05.089Z,99.90
2019-03-17T03:32:33.717Z,99.90
2019-03-17T03:35:01.862Z,99.90
2019-03-17T03:37:30.030Z,99.90
2019-03-17T03:39:58.152Z,99.90
2019-03-17T03:42:26.391Z,99.90
2019-03-17T03:44:54.521Z,99.90
2019-03-17T03:47:22.819Z,99.90
2019-03-17T03:49:50.932Z,99.90
2019-03-17T03:52:19.644Z,99.90
2019-03-17T03:54:48.131Z,99.90
2019-03-17T03:57:16.317Z,99.90
2019-03-17T03:59:44.540Z,99.90
2019-03-17T04:02:12.816Z,99.90
2019-03-17T04:04:41.042Z,99.90
2019-03-17T04:07:09.592Z,99.90
2019-03-17T04:09:37.823Z,99.90
2019-03-17T04:12:07.065Z,99.90
2019-03-17T04:14:35.594Z,99.90
2019-03-17T04:17:03.970Z,99.90
2019-03-17T04:19:32.288Z,99.90
2019-03-17T04:22:00.861Z,99.90
2019-03-17T04:24:29.219Z,99.90
2019-03-17T04:26:57.648Z,99.90
2019-03-17T04:29:25.773Z,99.90
2019-03-17T04:31:54.374Z,99.90
2019-03-17T04:34:22.600Z,99.90
2019-03-17T04:36:50.771Z,99.90
2019-03-17T04:39:18.972Z,99.90
2019-03-17T04:41:47.148Z,99.90
2019-03-17T04:44:20.858Z,99.90
2019-03-17T04:46:45.246Z,99.90
2019-03-17T04:49:13.380Z,99.90
2019-03-17T04:51:41.558Z,99.90
2019-03-17T04:54:10.139Z,99.90
2019-03-17T04:56:38.756Z,99.90
2019-03-17T04:59:06.872Z,99.90
2019-03-17T05:01:35.051Z,99.90
2019-03-17T05:04:03.773Z,99.90
2019-03-17T05:06:31.951Z,99.90
2019-03-17T05:09:00.083Z,99.90
2019-03-17T05:11:28.268Z,99.90
2019-03-17T05:13:56.858Z,99.90
2019-03-17T05:16:25.417Z,99.90
2019-03-17T05:18:53.647Z,99.90
2019-03-17T05:21:21.801Z,99.90
2019-03-17T05:23:49.955Z,99.90
2019-03-17T05:26:18.127Z,99.90
2019-03-17T05:28:46.302Z,99.90
2019-03-17T05:31:14.523Z,99.90
2019-03-17T05:33:43.156Z,99.90
2019-03-17T05:36:11.690Z,99.90
2019-03-17T05:38:39.858Z,99.90
2019-03-17T05:41:08.163Z,99.90
2019-03-17T05:43:36.557Z,99.90
2019-03-17T05:46:05.303Z,99.90
2019-03-17T05:48:33.904Z,99.90
2019-03-17T05:51:02.562Z,99.90
2019-03-17T05:53:31.115Z,99.90
2019-03-17T05:55:59.830Z,99.90
2019-03-17T05:58:27.999Z,99.90
2019-03-17T06:00:56.127Z,99.90
2019-03-17T06:03:24.317Z,99.90
2019-03-17T06:05:52.424Z,99.90
2019-03-17T06:08:20.721Z,99.90
2019-03-17T06:10:49.044Z,99.90
2019-03-17T06:13:17.225Z,99.90
2019-03-17T06:15:45.353Z,99.90
2019-03-17T06:18:13.628Z,99.90
2019-03-17T06:20:42.295Z,99.90
2019-03-17T06:23:10.868Z,99.90
2019-03-17T06:25:40.445Z,99.90
2019-03-17T06:28:08.663Z,99.90
2019-03-17T06:30:36.775Z,99.90
2019-03-17T06:33:04.959Z,99.90
2019-03-17T06:35:33.179Z,99.90
2019-03-17T06:38:01.518Z,99.90
2019-03-17T06:40:29.683Z,99.90
2019-03-17T06:42:58.020Z,99.90
2019-03-17T06:45:26.244Z,99.90
2019-03-17T06:47:54.539Z,99.90
2019-03-17T06:50:22.668Z,99.90
2019-03-17T06:52:53.385Z,99.90
2019-03-17T06:55:21.507Z,99.90
2019-03-17T06:57:50.036Z,99.90
2019-03-17T07:00:18.268Z,99.90
2019-03-17T07:02:46.658Z,99.90
2019-03-17T07:05:15.268Z,99.90
2019-03-17T07:07:44.730Z,99.90
2019-03-17T07:10:13.175Z,99.90
2019-03-17T07:12:41.451Z,99.90
2019-03-17T07:15:09.816Z,99.90
2019-03-17T07:17:38.356Z,99.90
2019-03-17T07:20:07.688Z,99.90
2019-03-17T07:22:36.010Z,99.90
2019-03-17T07:25:04.846Z,99.90
2019-03-17T07:27:33.119Z,99.90
2019-03-17T07:30:01.298Z,99.90
2019-03-17T07:32:29.440Z,99.90
2019-03-17T07:34:57.720Z,99.90
2019-03-17T07:37:25.969Z,99.90
2019-03-17T07:39:54.134Z,99.90
2019-03-17T07:42:22.267Z,99.90
2019-03-17T07:44:50.563Z,99.90
2019-03-17T07:47:19.031Z,99.90
2019-03-17T07:49:47.216Z,99.90
2019-03-17T07:52:15.352Z,99.90
2019-03-17T07:54:44.083Z,99.90
2019-03-17T07:57:13.035Z,99.90
2019-03-17T07:59:41.307Z,99.90
2019-03-17T08:02:09.548Z,99.90
2019-03-17T08:04:42.464Z,99.90
2019-03-17T08:07:07.864Z,99.90
2019-03-17T08:09:36.037Z,99.90
2019-03-17T08:12:04.748Z,99.90
2019-03-17T08:14:33.452Z,99.90
2019-03-17T08:17:02.098Z,99.90
2019-03-17T08:19:30.425Z,99.90
2019-03-17T08:21:58.545Z,99.90
2019-03-17T08:24:26.835Z,99.90
2019-03-17T08:26:55.018Z,99.90
2019-03-17T08:29:24.035Z,99.90
2019-03-17T08:31:52.511Z,99.90
2019-03-17T08:34:20.678Z,99.90
2019-03-17T08:36:48.907Z,99.90
2019-03-17T08:39:17.095Z,99.90
2019-03-17T08:41:45.324Z,99.90
2019-03-17T08:44:13.491Z,99.90
2019-03-17T08:46:41.607Z,99.90
2019-03-17T08:49:09.797Z,99.90
2019-03-17T08:51:38.019Z,99.90
2019-03-17T08:54:06.296Z,99.90
2019-03-17T08:56:34.424Z,99.90
2019-03-17T08:59:02.700Z,99.90
2019-03-17T09:01:30.837Z,99.90
2019-03-17T09:03:59.020Z,99.90
2019-03-17T09:06:27.148Z,99.90
2019-03-17T09:08:55.315Z,99.90
2019-03-17T09:11:23.543Z,99.90
2019-03-17T09:13:51.715Z,99.90
2019-03-17T09:16:19.910Z,99.90
2019-03-17T09:18:48.027Z,99.90
2019-03-17T09:21:16.206Z,99.90
2019-03-17T09:23:44.335Z,99.90
2019-03-17T09:26:12.887Z,99.90
2019-03-17T09:28:41.127Z,99.90
2019-03-17T09:31:09.733Z,99.90
2019-03-17T09:33:37.843Z,99.90
2019-03-17T09:36:06.124Z,99.90
2019-03-17T09:38:46.441Z,99.90
2019-03-17T09:41:04.522Z,99.90
2019-03-17T09:43:32.760Z,99.90
2019-03-17T09:46:01.368Z,99.90
2019-03-17T09:48:29.506Z,99.90
2019-03-17T09:50:58.060Z,99.90
2019-03-17T09:53:28.507Z,99.90
2019-03-17T09:55:56.147Z,99.90
2019-03-17T09:58:24.275Z,99.90
2019-03-17T10:00:52.446Z,99.90
2019-03-17T10:03:20.567Z,99.90
2019-03-17T10:05:49.608Z,99.90
2019-03-17T10:08:18.932Z,99.90
2019-03-17T10:10:48.022Z,99.90
2019-03-17T10:13:16.550Z,99.90
2019-03-17T10:15:44.723Z,99.60
2019-03-17T10:18:12.844Z,98.30
2019-03-17T10:20:41.019Z,96.90
2019-03-17T10:23:09.631Z,95.50
2019-03-17T10:25:37.917Z,94.80
2019-03-17T10:28:06.084Z,93.30
2019-03-17T10:30:34.534Z,91.10
2019-03-17T10:33:02.663Z,91.30
2019-03-17T10:35:30.835Z,90.90
2019-03-17T10:37:58.965Z,90.30
2019-03-17T10:40:27.139Z,89.00
2019-03-17T10:42:55.341Z,87.60
2019-03-17T10:45:23.559Z,85.50
2019-03-17T10:47:54.430Z,84.70
2019-03-17T10:50:22.006Z,85.10
2019-03-17T10:52:50.338Z,82.50
2019-03-17T10:55:18.828Z,82.80
2019-03-17T10:57:47.401Z,82.80
2019-03-17T11:00:16.118Z,80.90
2019-03-17T11:02:44.407Z,79.80
2019-03-17T11:05:12.940Z,82.00
2019-03-17T11:07:41.221Z,82.30
2019-03-17T11:10:09.667Z,80.70
2019-03-17T11:12:37.951Z,79.20
2019-03-17T11:15:07.363Z,80.40
2019-03-17T11:17:35.637Z,80.00
2019-03-17T11:20:04.639Z,80.40
2019-03-17T11:22:32.852Z,81.80
2019-03-17T11:25:00.990Z,82.10
2019-03-17T11:27:29.658Z,81.70
2019-03-17T11:29:57.840Z,80.80
2019-03-17T11:32:26.827Z,81.40
2019-03-17T11:34:55.290Z,82.20
2019-03-17T11:37:23.816Z,81.30
2019-03-17T11:39:51.981Z,82.10
2019-03-17T11:42:20.150Z,81.90
2019-03-17T11:44:48.283Z,82.00
2019-03-17T11:47:16.559Z,83.00
2019-03-17T11:49:46.135Z,84.00
2019-03-17T11:52:14.860Z,84.50
2019-03-17T11:54:43.495Z,84.80
2019-03-17T11:57:12.021Z,84.90
2019-03-17T11:59:40.135Z,84.30
2019-03-17T12:02:08.349Z,84.20
2019-03-17T12:04:37.946Z,84.70
2019-03-17T12:07:06.310Z,83.90
2019-03-17T12:09:35.245Z,83.10
2019-03-17T12:12:03.622Z,82.20
2019-03-17T12:14:31.844Z,81.60
2019-03-17T12:17:00.515Z,81.20
2019-03-17T12:19:28.750Z,80.10
2019-03-17T12:22:08.151Z,80.00
2019-03-17T12:24:26.947Z,79.40
2019-03-17T12:26:55.222Z,79.90
2019-03-17T12:29:23.955Z,78.20
2019-03-17T12:31:52.323Z,78.10
2019-03-17T12:34:28.196Z,78.00
2019-03-17T12:36:50.413Z,77.10
2019-03-17T12:39:18.543Z,77.40
2019-03-17T12:41:46.723Z,78.00
2019-03-17T12:44:15.206Z,78.20
2019-03-17T12:46:43.399Z,78.60
2019-03-17T12:49:11.615Z,80.20
2019-03-17T12:51:40.333Z,80.20
2019-03-17T12:54:08.974Z,80.10
2019-03-17T12:56:39.072Z,79.60
2019-03-17T12:59:07.203Z,79.70
2019-03-17T13:01:35.944Z,79.00
2019-03-17T13:04:04.168Z,79.20
2019-03-17T13:06:32.834Z,78.80
2019-03-17T13:09:01.301Z,77.40
2019-03-17T13:11:30.623Z,77.90
2019-03-17T13:13:58.800Z,77.70
2019-03-17T13:16:27.486Z,78.20
2019-03-17T13:18:55.660Z,78.80
2019-03-17T13:21:23.783Z,79.10
2019-03-17T13:23:51.968Z,80.50
2019-03-17T13:26:20.428Z,80.20
2019-03-17T13:28:48.606Z,81.80
2019-03-17T13:31:16.813Z,82.30
2019-03-17T13:33:45.445Z,81.10
2019-03-17T13:36:13.571Z,80.60
2019-03-17T13:38:41.743Z,79.80
2019-03-17T13:41:09.976Z,80.20
2019-03-17T13:43:38.162Z,80.30
2019-03-17T13:46:06.719Z,80.80
2019-03-17T13:48:34.891Z,81.70
2019-03-17T13:51:03.020Z,81.60
2019-03-17T13:53:31.714Z,80.40
2019-03-17T13:56:00.036Z,80.40
2019-03-17T13:58:28.747Z,80.60
2019-03-17T14:00:56.868Z,82.10
2019-03-17T14:03:25.595Z,81.70
2019-03-17T14:05:53.833Z,82.80
2019-03-17T14:08:22.361Z,83.00
2019-03-17T14:10:50.495Z,83.90
2019-03-17T14:13:18.776Z,85.10
2019-03-17T14:15:46.911Z,84.50
2019-03-17T14:18:15.552Z,83.70
2019-03-17T14:20:43.771Z,80.70
2019-03-17T14:23:12.422Z,73.80
2019-03-17T14:25:40.554Z,71.40
2019-03-17T14:28:08.924Z,70.70
2019-03-17T14:30:37.304Z,70.30
2019-03-17T14:33:05.938Z,69.70
2019-03-17T14:35:34.159Z,68.90
2019-03-17T14:38:02.444Z,68.40
2019-03-17T14:40:30.824Z,69.10
2019-03-17T14:42:58.987Z,69.20
2019-03-17T14:45:27.127Z,68.70
2019-03-17T14:47:55.493Z,69.20
2019-03-17T14:50:23.647Z,69.40
2019-03-17T14:52:52.076Z,69.40
2019-03-17T14:55:20.984Z,69.20
2019-03-17T14:57:49.207Z,69.20
2019-03-17T15:00:18.052Z,68.70
2019-03-17T15:02:46.397Z,68.20
2019-03-17T15:05:14.601Z,68.70
2019-03-17T15:07:42.832Z,67.00
2019-03-17T15:10:13.308Z,67.20
2019-03-17T15:12:41.987Z,66.30
2019-03-17T15:15:11.920Z,65.90
2019-03-17T15:17:40.594Z,66.20
2019-03-17T15:20:11.021Z,67.00
2019-03-17T15:22:39.160Z,66.70
2019-03-17T15:25:08.402Z,66.90
2019-03-17T15:27:37.012Z,67.30
2019-03-17T15:30:07.159Z,67.80
2019-03-17T15:32:35.507Z,67.80
2019-03-17T15:35:04.155Z,67.90
2019-03-17T15:37:32.744Z,67.60
2019-03-17T15:40:01.274Z,67.30
2019-03-17T15:42:29.582Z,67.20
2019-03-17T15:44:57.763Z,66.60
2019-03-17T15:47:25.908Z,67.10
2019-03-17T15:49:54.203Z,67.10
2019-03-17T15:52:22.330Z,67.20
2019-03-17T15:54:50.524Z,66.70
2019-03-17T15:57:19.995Z,67.20
2019-03-17T15:59:49.001Z,66.80
2019-03-17T16:02:17.748Z,67.00
2019-03-17T16:04:46.087Z,66.80
2019-03-17T16:07:14.305Z,66.60
2019-03-17T16:09:42.942Z,66.80
2019-03-17T16:12:11.196Z,67.00
2019-03-17T16:14:39.824Z,66.30
2019-03-17T16:17:08.332Z,65.60
2019-03-17T16:19:36.505Z,65.50
2019-03-17T16:22:05.084Z,66.30
2019-03-17T16:24:33.274Z,66.20
2019-03-17T16:27:01.410Z,66.00
2019-03-17T16:29:29.648Z,66.70
2019-03-17T16:31:58.187Z,67.10
2019-03-17T16:34:26.408Z,67.40
2019-03-17T16:36:55.057Z,67.00
2019-03-17T16:39:23.881Z,67.00
2019-03-17T16:41:52.106Z,66.80
2019-03-17T16:44:20.400Z,66.50
2019-03-17T16:46:49.407Z,66.10
2019-03-17T16:49:18.435Z,65.70
2019-03-17T16:51:46.670Z,65.90
2019-03-17T16:54:14.865Z,66.80
2019-03-17T16:56:42.983Z,65.30
2019-03-17T16:59:11.306Z,65.70
2019-03-17T17:01:39.524Z,66.20
2019-03-17T17:04:07.875Z,66.20
2019-03-17T17:06:36.063Z,66.30
2019-03-17T17:09:06.384Z,65.50
2019-03-17T17:11:34.930Z,65.40
2019-03-17T17:14:04.207Z,65.40
2019-03-17T17:16:32.839Z,65.50
2019-03-17T17:19:00.980Z,65.40
2019-03-17T17:21:29.623Z,65.40
2019-03-17T17:23:57.792Z,65.50
2019-03-17T17:26:36.635Z,65.40
2019-03-17T17:28:57.560Z,65.90
2019-03-17T17:31:25.818Z,66.00
2019-03-17T17:33:53.947Z,66.60
2019-03-17T17:36:22.483Z,66.90
2019-03-17T17:38:50.621Z,66.90
2019-03-17T17:41:18.784Z,68.40
2019-03-17T17:43:46.927Z,67.40
2019-03-17T17:46:15.142Z,67.50
2019-03-17T17:48:43.259Z,67.00
2019-03-17T17:51:12.000Z,66.90
2019-03-17T17:53:40.577Z,66.60
2019-03-17T17:56:08.768Z,66.10
2019-03-17T17:58:37.000Z,65.10
2019-03-17T18:01:05.375Z,64.60
2019-03-17T18:03:33.533Z,64.60
2019-03-17T18:06:01.682Z,64.90
2019-03-17T18:08:29.892Z,64.90
2019-03-17T18:10:58.053Z,66.20
2019-03-17T18:13:26.623Z,65.00
2019-03-17T18:15:55.997Z,63.70
2019-03-17T18:18:24.150Z,62.50
2019-03-17T18:20:52.318Z,61.50
2019-03-17T18:23:20.956Z,61.00
2019-03-17T18:25:49.386Z,61.00
2019-03-17T18:28:17.602Z,60.60
2019-03-17T18:30:46.023Z,60.50
2019-03-17T18:33:14.189Z,60.90
2019-03-17T18:35:43.032Z,60.90
2019-03-17T18:38:11.185Z,60.30
2019-03-17T18:40:42.265Z,60.40
2019-03-17T18:43:09.668Z,60.80
2019-03-17T18:45:37.839Z,61.50
2019-03-17T18:48:06.299Z,61.90
2019-03-17T18:50:34.415Z,62.20
2019-03-17T18:53:03.238Z,62.40
2019-03-17T18:55:31.699Z,62.70
2019-03-17T18:57:59.954Z,63.10
2019-03-17T19:00:28.270Z,63.20
2019-03-17T19:02:56.862Z,63.20
2019-03-17T19:05:25.110Z,63.80
2019-03-17T19:07:53.276Z,63.40
2019-03-17T19:10:21.490Z,63.50
2019-03-17T19:12:49.794Z,63.80
2019-03-17T19:15:18.011Z,64.30
2019-03-17T19:17:46.607Z,64.40
2019-03-17T19:20:15.126Z,64.70
2019-03-17T19:22:43.491Z,64.80
2019-03-17T19:25:12.530Z,64.70
2019-03-17T19:27:40.800Z,65.60
2019-03-17T19:30:12.863Z,65.80
2019-03-17T19:32:41.183Z,66.30
2019-03-17T19:35:09.612Z,66.30
2019-03-17T19:37:37.775Z,66.50
2019-03-17T19:40:06.522Z,66.80
2019-03-17T19:42:34.701Z,66.90
2019-03-17T19:45:04.078Z,66.90
2019-03-17T19:47:32.231Z,67.30
2019-03-17T19:50:00.625Z,67.50
2019-03-17T19:52:32.783Z,68.00
2019-03-17T19:55:05.406Z,68.10
2019-03-17T19:57:36.639Z,68.50
2019-03-17T20:00:05.408Z,68.40
2019-03-17T20:02:34.043Z,68.40
2019-03-17T20:05:02.287Z,68.80
2019-03-17T20:07:30.684Z,69.00
2019-03-17T20:09:58.947Z,69.20
2019-03-17T20:12:30.123Z,69.20
2019-03-17T20:14:58.261Z,70.10
2019-03-17T20:17:26.885Z,69.50
2019-03-17T20:19:57.082Z,69.60
2019-03-17T20:22:25.683Z,70.20
2019-03-17T20:24:53.843Z,70.10
2019-03-17T20:27:22.006Z,69.80
2019-03-17T20:29:50.194Z,69.60
2019-03-17T20:32:18.861Z,69.50
2019-03-17T20:34:46.983Z,69.60
2019-03-17T20:37:15.159Z,69.60
2019-03-17T20:39:43.743Z,69.70
2019-03-17T20:42:11.919Z,70.10
2019-03-17T20:44:40.702Z,71.10
2019-03-17T20:47:09.374Z,71.30
2019-03-17T20:49:37.492Z,71.20
2019-03-17T20:52:05.659Z,71.20
2019-03-17T20:54:33.874Z,71.20
2019-03-17T20:57:02.488Z,70.50
2019-03-17T20:59:31.015Z,70.10
2019-03-17T21:01:59.499Z,69.70
2019-03-17T21:04:28.068Z,69.20
2019-03-17T21:06:56.187Z,68.90
2019-03-17T21:09:24.355Z,68.30
2019-03-17T21:11:52.480Z,67.70
2019-03-17T21:14:20.660Z,67.70
2019-03-17T21:16:48.780Z,67.30
2019-03-17T21:19:16.952Z,67.40
2019-03-17T21:21:45.166Z,67.30
2019-03-17T21:24:13.737Z,67.30
2019-03-17T21:26:41.859Z,67.30
2019-03-17T21:29:10.484Z,67.10
2019-03-17T21:31:38.642Z,67.30
2019-03-17T21:34:06.812Z,67.10
2019-03-17T21:36:34.920Z,66.40
2019-03-17T21:39:04.568Z,66.80
2019-03-17T21:41:32.683Z,67.00
2019-03-17T21:44:00.860Z,66.80
2019-03-17T21:46:28.983Z,66.60
2019-03-17T21:48:57.155Z,66.50
2019-03-17T21:51:25.269Z,66.70
2019-03-17T21:53:53.439Z,66.20
2019-03-17T21:56:21.566Z,66.30
2019-03-17T21:58:49.730Z,66.00
2019-03-17T22:01:17.914Z,65.90
2019-03-17T22:03:46.083Z,66.40
2019-03-17T22:06:14.595Z,66.10
2019-03-17T22:08:46.281Z,66.20
2019-03-17T22:11:16.668Z,66.00
2019-03-17T22:13:48.568Z,66.30
2019-03-17T22:16:19.433Z,66.40
2019-03-17T22:18:48.544Z,66.30
2019-03-17T22:21:16.760Z,66.30
2019-03-17T22:23:44.962Z,66.70
2019-03-17T22:26:13.310Z,67.20
2019-03-17T22:28:41.494Z,67.10
2019-03-17T22:31:09.699Z,67.30
2019-03-17T22:33:37.863Z,67.50
2019-03-17T22:36:09.267Z,67.30
2019-03-17T22:38:37.444Z,67.10
2019-03-17T22:41:06.811Z,67.80
2019-03-17T22:43:35.132Z,67.70
2019-03-17T22:46:03.360Z,68.00
2019-03-17T22:48:31.568Z,68.10
2019-03-17T22:50:59.699Z,67.70
2019-03-17T22:53:29.235Z,67.60
2019-03-17T22:55:57.430Z,67.10
2019-03-17T22:58:25.567Z,66.90
2019-03-17T23:00:54.135Z,67.50
2019-03-17T23:03:22.881Z,67.70
2019-03-17T23:05:51.152Z,68.40
2019-03-17T23:08:20.948Z,68.30
2019-03-17T23:10:52.116Z,68.00
2019-03-17T23:13:20.238Z,67.90
2019-03-17T23:15:48.869Z,67.10
2019-03-17T23:18:17.031Z,67.80
2019-03-17T23:20:45.300Z,67.90
2019-03-17T23:23:13.890Z,68.80
2019-03-17T23:25:42.071Z,68.30
2019-03-17T23:28:10.192Z,67.70
2019-03-17T23:30:38.372Z,68.10
2019-03-17T23:33:07.127Z,68.50
2019-03-17T23:35:35.407Z,68.10
2019-03-17T23:38:04.066Z,67.90
2019-03-17T23:40:33.564Z,68.00
2019-03-17T23:43:01.806Z,68.30
2019-03-17T23:45:30.423Z,68.40
2019-03-17T23:47:58.673Z,67.90
2019-03-17T23:50:27.399Z,66.80
2019-03-17T23:52:55.706Z,66.20
2019-03-17T23:55:24.051Z,66.40
2019-03-17T23:57:52.184Z,66.70
